createdAt,value
2023-04-01T00:01:26.224Z,98723.59
2023-04-01T00:03:53.014Z,98722.03
2023-04-01T00:06:19.970Z,98715.88
2023-04-01T00:08:47.578Z,98721.47
2023-04-01T00:11:14.901Z,98723.50
2023-04-01T00:13:42.144Z,98719.94
2023-04-01T00:16:17.921Z,98725.34
2023-04-01T00:18:48.387Z,98715.00
2023-04-01T00:21:16.739Z,98714.13
2023-04-01T00:23:43.382Z,98709.44
2023-04-01T00:26:10.316Z,98718.47
2023-04-01T00:28:38.166Z,98716.84
2023-04-01T00:31:07.266Z,98712.50
2023-04-01T00:33:33.901Z,98713.38
2023-04-01T00:36:11.840Z,98713.53
2023-04-01T00:38:39.266Z,98709.84
2023-04-01T00:41:07.097Z,98704.44
2023-04-01T00:43:34.362Z,98703.16
2023-04-01T00:46:01.035Z,98698.03
2023-04-01T00:48:32.858Z,98704.78
2023-04-01T00:51:03.556Z,98706.44
2023-04-01T00:53:32.734Z,98699.59
2023-04-01T00:56:08.845Z,98699.78
2023-04-01T00:58:40.894Z,98694.34
2023-04-01T01:01:09.971Z,98703.00
2023-04-01T01:03:37.352Z,98703.06
2023-04-01T01:06:24.615Z,98696.16
2023-04-01T01:09:13.112Z,98697.03
2023-04-01T01:12:15.417Z,98696.09
2023-04-01T01:14:44.837Z,98705.25
2023-04-01T01:17:20.511Z,98704.06
2023-04-01T01:20:26.116Z,98699.56
2023-04-01T01:23:12.668Z,98697.78
2023-04-01T01:25:46.557Z,98689.97
2023-04-01T01:28:26.820Z,98687.28
2023-04-01T01:31:15.952Z,98689.22
2023-04-01T01:34:20.900Z,98687.41
2023-04-01T01:36:51.819Z,98684.06
2023-04-01T01:39:21.192Z,98689.97
2023-04-01T01:41:50.315Z,98687.63
2023-04-01T01:44:19.227Z,98691.78
2023-04-01T01:46:46.561Z,98690.91
2023-04-01T01:49:15.468Z,98686.16
2023-04-01T01:51:44.002Z,98683.75
2023-04-01T01:54:14.364Z,98687.50
2023-04-01T01:56:44.735Z,98688.97
2023-04-01T01:59:14.413Z,98687.28
2023-04-01T02:01:45.383Z,98683.56
2023-04-01T02:04:15.918Z,98682.69
2023-04-01T02:06:56.727Z,98684.13
2023-04-01T02:09:23.636Z,98688.38
2023-04-01T02:11:54.161Z,98687.63
2023-04-01T02:14:23.670Z,98684.38
2023-04-01T02:16:56.529Z,98687.09
2023-04-01T02:19:28.483Z,98686.16
2023-04-01T02:22:00.495Z,98679.22
2023-04-01T02:24:31.027Z,98683.06
2023-04-01T02:26:57.817Z,98680.84
2023-04-01T02:29:28.727Z,98680.97
2023-04-01T02:31:55.968Z,98681.00
2023-04-01T02:34:24.969Z,98684.44
2023-04-01T02:36:52.350Z,98686.53
2023-04-01T02:39:19.168Z,98681.66
2023-04-01T02:41:46.956Z,98680.59
2023-04-01T02:44:15.707Z,98680.59
2023-04-01T02:46:43.475Z,98686.13
2023-04-01T02:49:10.289Z,98682.66
2023-04-01T02:51:37.018Z,98680.06
2023-04-01T02:54:04.315Z,98675.16
2023-04-01T02:56:31.237Z,98685.38
2023-04-01T02:58:57.885Z,98685.44
2023-04-01T03:01:24.575Z,98686.97
2023-04-01T03:03:51.308Z,98681.13
2023-04-01T03:06:18.759Z,98680.94
2023-04-01T03:08:46.125Z,98694.63
2023-04-01T03:11:13.724Z,98699.19
2023-04-01T03:13:40.409Z,98693.09
2023-04-01T03:16:07.630Z,98698.25
2023-04-01T03:18:35.557Z,98697.25
2023-04-01T03:21:23.412Z,98698.94
2023-04-01T03:23:50.679Z,98687.63
2023-04-01T03:26:17.600Z,98692.38
2023-04-01T03:28:45.078Z,98689.63
2023-04-01T03:31:12.821Z,98694.06
2023-04-01T03:33:46.611Z,98690.44
2023-04-01T03:36:13.790Z,98679.09
2023-04-01T03:38:44.820Z,98690.03
2023-04-01T03:41:16.577Z,98680.97
2023-04-01T03:43:44.694Z,98686.16
2023-04-01T03:46:12.110Z,98687.72
2023-04-01T03:48:38.766Z,98687.00
2023-04-01T03:51:09.268Z,98693.44
2023-04-01T03:53:36.472Z,98696.66
2023-04-01T03:56:09.472Z,98688.03
2023-04-01T03:58:37.342Z,98689.72
2023-04-01T04:01:15.359Z,98699.31
2023-04-01T04:03:42.251Z,98696.78
2023-04-01T04:06:12.511Z,98692.38
2023-04-01T04:08:39.589Z,98686.34
2023-04-01T04:11:06.214Z,98702.19
2023-04-01T04:13:33.999Z,98698.97
2023-04-01T04:16:01.833Z,98700.47
2023-04-01T04:18:29.889Z,98694.50
2023-04-01T04:20:56.755Z,98698.63
2023-04-01T04:23:23.460Z,98702.91
2023-04-01T04:26:00.672Z,98701.97
2023-04-01T04:28:29.041Z,98697.84
2023-04-01T04:30:58.422Z,98705.56
2023-04-01T04:33:26.103Z,98706.53
2023-04-01T04:35:56.972Z,98706.34
2023-04-01T04:38:24.218Z,98708.22
2023-04-01T04:40:51.010Z,98708.94
2023-04-01T04:43:18.699Z,98707.38
2023-04-01T04:45:45.600Z,98705.59
2023-04-01T04:48:19.169Z,98713.09
2023-04-01T04:50:50.258Z,98717.88
2023-04-01T04:53:20.000Z,98714.16
2023-04-01T04:55:48.733Z,98719.31
2023-04-01T04:58:24.663Z,98720.34
2023-04-01T05:00:51.389Z,98722.75
2023-04-01T05:03:26.513Z,98720.69
2023-04-01T05:05:54.600Z,98723.91
2023-04-01T05:08:21.381Z,98722.81
2023-04-01T05:10:48.102Z,98728.16
2023-04-01T05:13:14.708Z,98735.88
2023-04-01T05:15:42.740Z,98732.75
2023-04-01T05:18:09.388Z,98733.56
2023-04-01T05:20:36.137Z,98735.88
2023-04-01T05:23:03.651Z,98723.97
2023-04-01T05:25:30.590Z,98735.69
2023-04-01T05:27:58.292Z,98736.78
2023-04-01T05:30:24.979Z,98739.25
2023-04-01T05:33:17.832Z,98745.31
2023-04-01T05:35:44.444Z,98740.22
2023-04-01T05:38:11.210Z,98738.53
2023-04-01T05:40:37.821Z,98747.72
2023-04-01T05:43:04.479Z,98740.88
2023-04-01T05:45:31.873Z,98746.97
2023-04-01T05:48:02.103Z,98743.47
2023-04-01T05:50:32.888Z,98753.88
2023-04-01T05:52:59.868Z,98753.75
2023-04-01T05:55:26.755Z,98750.25
2023-04-01T05:57:53.342Z,98758.13
2023-04-01T06:00:21.065Z,98754.56
2023-04-01T06:02:48.764Z,98763.94
2023-04-01T06:05:24.096Z,98760.91
2023-04-01T06:07:59.768Z,98766.28
2023-04-01T06:10:39.134Z,98771.97
2023-04-01T06:13:25.683Z,98774.66
2023-04-01T06:16:05.841Z,98780.78
2023-04-01T06:19:22.579Z,98778.13
2023-04-01T06:22:19.722Z,98779.72
2023-04-01T06:25:33.086Z,98780.53
2023-04-01T06:28:38.326Z,98792.50
2023-04-01T06:31:25.993Z,98786.56
2023-04-01T06:34:23.134Z,98789.22
2023-04-01T06:37:38.110Z,98793.19
2023-04-01T06:40:12.767Z,98793.03
2023-04-01T06:43:03.108Z,98795.47
2023-04-01T06:46:03.617Z,98786.28
2023-04-01T06:49:04.958Z,98793.69
2023-04-01T06:52:02.479Z,98797.94
2023-04-01T06:54:53.075Z,98805.56
2023-04-01T06:57:50.207Z,98803.69
2023-04-01T07:00:33.567Z,98800.97
2023-04-01T07:03:25.742Z,98804.41
2023-04-01T07:05:53.839Z,98803.63
2023-04-01T07:08:27.820Z,98810.47
2023-04-01T07:11:06.775Z,98811.50
2023-04-01T07:14:14.640Z,98802.66
2023-04-01T07:16:48.122Z,98807.84
2023-04-01T07:19:25.845Z,98812.91
2023-04-01T07:22:23.133Z,98822.63
2023-04-01T07:25:26.179Z,98824.13
2023-04-01T07:28:17.776Z,98818.09
2023-04-01T07:31:04.107Z,98826.63
2023-04-01T07:33:48.327Z,98822.19
2023-04-01T07:36:33.715Z,98822.88
2023-04-01T07:39:07.402Z,98827.22
2023-04-01T07:41:55.851Z,98830.03
2023-04-01T07:44:34.750Z,98827.88
2023-04-01T07:47:33.721Z,98835.50
2023-04-01T07:50:14.635Z,98833.72
2023-04-01T07:53:13.932Z,98835.44
2023-04-01T07:56:06.492Z,98837.09
2023-04-01T07:58:42.796Z,98841.50
2023-04-01T08:01:23.716Z,98847.66
2023-04-01T08:04:06.107Z,98843.31
2023-04-01T08:06:36.934Z,98851.09
2023-04-01T08:09:15.958Z,98846.78
2023-04-01T08:12:41.485Z,98855.09
2023-04-01T08:15:39.459Z,98858.75
2023-04-01T08:18:13.512Z,98867.34
2023-04-01T08:20:46.039Z,98869.72
2023-04-01T08:23:41.625Z,98869.88
2023-04-01T08:26:25.426Z,98871.41
2023-04-01T08:29:14.981Z,98876.56
2023-04-01T08:32:04.331Z,98872.88
2023-04-01T08:34:42.233Z,98881.22
2023-04-01T08:37:23.036Z,98882.69
2023-04-01T08:40:31.261Z,98883.28
2023-04-01T08:43:22.856Z,98891.63
2023-04-01T08:46:13.938Z,98885.75
2023-04-01T08:48:49.640Z,98893.34
2023-04-01T08:51:28.287Z,98890.81
2023-04-01T08:53:58.015Z,98896.44
2023-04-01T08:56:51.627Z,98897.28
2023-04-01T08:59:38.161Z,98897.03
2023-04-01T09:02:41.145Z,98897.38
2023-04-01T09:05:59.820Z,98899.53
2023-04-01T09:08:33.324Z,98900.63
2023-04-01T09:11:21.788Z,98906.91
2023-04-01T09:14:41.236Z,98902.13
2023-04-01T09:17:19.215Z,98909.44
2023-04-01T09:20:21.036Z,98899.47
2023-04-01T09:22:50.812Z,98911.47
2023-04-01T09:25:23.383Z,98908.63
2023-04-01T09:28:09.161Z,98913.88
2023-04-01T09:30:40.209Z,98909.53
2023-04-01T09:33:55.841Z,98921.13
2023-04-01T09:37:11.332Z,98922.75
2023-04-01T09:39:53.230Z,98927.97
2023-04-01T09:42:44.976Z,98925.34
2023-04-01T09:45:41.903Z,98929.41
2023-04-01T09:49:00.136Z,98931.34
2023-04-01T09:51:40.259Z,98931.25
2023-04-01T09:54:45.523Z,98936.72
2023-04-01T09:57:18.772Z,98935.03
2023-04-01T10:00:32.919Z,98936.63
2023-04-01T10:03:33.031Z,98942.94
2023-04-01T10:06:58.317Z,98934.75
2023-04-01T10:09:43.798Z,98948.53
2023-04-01T10:12:42.569Z,98947.81
2023-04-01T10:15:36.210Z,98949.38
2023-04-01T10:18:19.125Z,98952.22
2023-04-01T10:21:18.880Z,98962.22
2023-04-01T10:24:06.986Z,98959.75
2023-04-01T10:26:39.987Z,98963.69
2023-04-01T10:30:09.857Z,98957.28
2023-04-01T10:33:00.702Z,98962.22
2023-04-01T10:35:54.291Z,98956.13
2023-04-01T10:38:39.880Z,98955.78
2023-04-01T10:41:21.522Z,98961.16
2023-04-01T10:44:32.883Z,98963.38
2023-04-01T10:47:39.570Z,98968.16
2023-04-01T10:50:28.073Z,98971.69
2023-04-01T10:53:07.759Z,98975.94
2023-04-01T10:56:24.908Z,98972.47
2023-04-01T10:59:26.769Z,98975.44
2023-04-01T11:02:25.704Z,98980.28
2023-04-01T11:05:40.295Z,98973.66
2023-04-01T11:08:22.394Z,98981.00
2023-04-01T11:11:30.701Z,98979.00
2023-04-01T11:14:21.301Z,98983.53
2023-04-01T11:17:14.122Z,98983.69
2023-04-01T11:20:18.147Z,98978.16
2023-04-01T11:22:59.935Z,98987.09
2023-04-01T11:25:51.653Z,98989.94
2023-04-01T11:28:47.115Z,98993.25
2023-04-01T11:31:27.457Z,98993.38
2023-04-01T11:34:32.207Z,98995.72
2023-04-01T11:37:26.335Z,99001.53
2023-04-01T11:40:32.595Z,98994.00
2023-04-01T11:43:37.570Z,99003.91
2023-04-01T11:46:34.726Z,99000.34
2023-04-01T11:49:09.363Z,99005.59
2023-04-01T11:52:01.401Z,99005.31
2023-04-01T11:54:55.970Z,99010.47
2023-04-01T11:57:34.890Z,99020.13
2023-04-01T12:00:32.204Z,99017.78
2023-04-01T12:03:23.651Z,99025.03
2023-04-01T12:06:18.000Z,99020.63
2023-04-01T12:09:11.509Z,99023.59
2023-04-01T12:12:12.373Z,99030.19
2023-04-01T12:14:53.264Z,99033.88
2023-04-01T12:17:37.914Z,99039.59
2023-04-01T12:20:13.739Z,99048.91
2023-04-01T12:23:14.378Z,99049.78
2023-04-01T12:26:06.867Z,99042.97
2023-04-01T12:28:43.001Z,99048.53
2023-04-01T12:31:32.502Z,99046.81
2023-04-01T12:34:23.595Z,99055.75
2023-04-01T12:37:05.691Z,99062.25
2023-04-01T12:39:44.010Z,99057.97
2023-04-01T12:42:28.711Z,99058.91
2023-04-01T12:45:04.367Z,99066.19
2023-04-01T12:47:33.989Z,99074.56
2023-04-01T12:50:17.159Z,99062.88
2023-04-01T12:53:20.904Z,99070.00
2023-04-01T12:55:51.717Z,99073.25
2023-04-01T12:58:40.160Z,99083.00
2023-04-01T13:01:48.526Z,99078.41
2023-04-01T13:04:35.888Z,99084.28
2023-04-01T13:07:27.384Z,99086.81
2023-04-01T13:09:53.909Z,99083.94
2023-04-01T13:12:32.658Z,99090.59
2023-04-01T13:15:11.798Z,99092.16
2023-04-01T13:18:08.291Z,99086.94
2023-04-01T13:20:44.947Z,99097.28
2023-04-01T13:23:35.923Z,99097.75
2023-04-01T13:26:13.862Z,99106.84
2023-04-01T13:29:07.669Z,99103.03
2023-04-01T13:32:13.223Z,99105.03
2023-04-01T13:35:06.413Z,99105.13
2023-04-01T13:37:53.461Z,99106.16
2023-04-01T13:40:23.066Z,99107.97
2023-04-01T13:42:58.545Z,99108.78
2023-04-01T13:45:36.328Z,99110.97
2023-04-01T13:48:21.191Z,99116.03
2023-04-01T13:50:50.670Z,99117.59
2023-04-01T13:53:35.532Z,99119.88
2023-04-01T13:56:39.388Z,99122.88
2023-04-01T13:59:41.612Z,99129.22
2023-04-01T14:02:32.877Z,99129.47
2023-04-01T14:05:41.935Z,99118.97
2023-04-01T14:08:28.611Z,99130.13
2023-04-01T14:11:04.380Z,99126.84
2023-04-01T14:14:04.814Z,99130.78
2023-04-01T14:16:55.110Z,99138.97
2023-04-01T14:19:40.524Z,99142.34
2023-04-01T14:22:19.002Z,99152.78
2023-04-01T14:25:07.145Z,99147.16
2023-04-01T14:28:02.365Z,99150.56
2023-04-01T14:30:46.186Z,99157.66
2023-04-01T14:33:42.341Z,99162.06
2023-04-01T14:36:31.463Z,99166.38
2023-04-01T14:39:33.796Z,99165.50
2023-04-01T14:42:21.052Z,99176.28
2023-04-01T14:45:13.268Z,99181.59
2023-04-01T14:48:12.062Z,99177.88
2023-04-01T14:50:45.588Z,99176.94
2023-04-01T14:53:24.369Z,99182.00
2023-04-01T14:55:52.212Z,99182.38
2023-04-01T14:58:22.839Z,99183.97
2023-04-01T15:01:13.074Z,99187.56
2023-04-01T15:03:58.073Z,99191.84
2023-04-01T15:06:30.642Z,99197.38
2023-04-01T15:09:21.903Z,99205.06
2023-04-01T15:12:19.519Z,99202.84
2023-04-01T15:15:18.579Z,99206.00
2023-04-01T15:17:48.121Z,99208.06
2023-04-01T15:20:27.406Z,99208.56
2023-04-01T15:23:11.784Z,99218.25
2023-04-01T15:25:38.432Z,99224.75
2023-04-01T15:28:11.193Z,99222.72
2023-04-01T15:30:57.754Z,99224.38
2023-04-01T15:33:46.070Z,99238.78
2023-04-01T15:36:31.056Z,99238.78
2023-04-01T15:39:25.472Z,99238.06
2023-04-01T15:42:18.521Z,99248.56
2023-04-01T15:44:54.425Z,99253.00
2023-04-01T15:47:27.393Z,99260.06
2023-04-01T15:50:25.018Z,99260.72
2023-04-01T15:53:02.530Z,99263.84
2023-04-01T15:55:51.283Z,99267.09
2023-04-01T15:58:25.152Z,99262.22
2023-04-01T16:01:16.576Z,99267.91
2023-04-01T16:03:43.243Z,99279.22
2023-04-01T16:06:34.479Z,99283.00
2023-04-01T16:09:12.752Z,99287.28
2023-04-01T16:11:48.536Z,99289.09
2023-04-01T16:14:27.073Z,99299.44
2023-04-01T16:17:18.356Z,99305.91
2023-04-01T16:19:56.860Z,99301.13
2023-04-01T16:22:31.110Z,99309.22
2023-04-01T16:25:07.480Z,99320.44
2023-04-01T16:27:37.482Z,99318.91
2023-04-01T16:30:28.825Z,99321.44
2023-04-01T16:33:04.444Z,99320.09
2023-04-01T16:35:49.478Z,99330.41
2023-04-01T16:38:25.344Z,99332.00
2023-04-01T16:41:03.999Z,99329.47
2023-04-01T16:43:43.221Z,99344.19
2023-04-01T16:46:29.786Z,99338.09
2023-04-01T16:49:23.829Z,99351.28
2023-04-01T16:52:11.808Z,99364.03
2023-04-01T16:54:47.322Z,99370.28
2023-04-01T16:57:29.039Z,99377.53
2023-04-01T17:00:01.360Z,99382.94
2023-04-01T17:02:36.690Z,99393.13
2023-04-01T17:05:16.538Z,99400.19
2023-04-01T17:08:02.667Z,99405.31
2023-04-01T17:10:51.851Z,99400.97
2023-04-01T17:13:47.150Z,99417.69
2023-04-01T17:16:16.808Z,99417.50
2023-04-01T17:19:02.168Z,99417.59
2023-04-01T17:21:52.759Z,99428.25
2023-04-01T17:24:37.631Z,99441.53
2023-04-01T17:27:16.403Z,99443.28
2023-04-01T17:30:11.712Z,99442.38
2023-04-01T17:33:06.562Z,99452.84
2023-04-01T17:35:40.408Z,99463.19
2023-04-01T17:38:24.990Z,99467.56
2023-04-01T17:41:02.492Z,99480.81
2023-04-01T17:43:35.925Z,99494.06
2023-04-01T17:46:08.541Z,99495.03
2023-04-01T17:49:01.444Z,99501.09
2023-04-01T17:51:31.018Z,99509.75
2023-04-01T17:54:06.832Z,99511.44
2023-04-01T17:56:55.839Z,99512.41
2023-04-01T17:59:31.001Z,99534.09
2023-04-01T18:02:19.074Z,99526.31
2023-04-01T18:04:57.958Z,99540.16
2023-04-01T18:07:58.943Z,99548.88
2023-04-01T18:10:52.996Z,99558.38
2023-04-01T18:13:37.700Z,99566.19
2023-04-01T18:16:31.200Z,99571.38
2023-04-01T18:19:01.003Z,99569.63
2023-04-01T18:21:33.750Z,99580.88
2023-04-01T18:24:12.258Z,99595.63
2023-04-01T18:26:42.632Z,99586.09
2023-04-01T18:29:23.125Z,99605.13
2023-04-01T18:31:55.400Z,99616.38
2023-04-01T18:34:45.470Z,99622.41
2023-04-01T18:37:26.537Z,99630.22
2023-04-01T18:40:16.340Z,99638.00
2023-04-01T18:43:03.200Z,99641.47
2023-04-01T18:45:47.961Z,99649.22
2023-04-01T18:48:23.072Z,99657.91
2023-04-01T18:50:58.829Z,99669.13
2023-04-01T18:53:32.509Z,99664.81
2023-04-01T18:56:03.618Z,99681.34
2023-04-01T18:58:36.403Z,99682.97
2023-04-01T19:01:03.212Z,99684.69
2023-04-01T19:03:42.518Z,99699.34
2023-04-01T19:06:20.815Z,99707.97
2023-04-01T19:08:47.820Z,99710.63
2023-04-01T19:11:33.230Z,99718.41
2023-04-01T19:14:27.028Z,99722.66
2023-04-01T19:17:18.738Z,99730.44
2023-04-01T19:20:26.454Z,99745.91
2023-04-01T19:23:22.432Z,99745.03
2023-04-01T19:25:54.729Z,99755.41
2023-04-01T19:28:34.985Z,99759.56
2023-04-01T19:31:17.277Z,99769.88
2023-04-01T19:34:05.841Z,99779.47
2023-04-01T19:36:54.484Z,99783.75
2023-04-01T19:39:51.765Z,99784.63
2023-04-01T19:42:23.598Z,99786.25
2023-04-01T19:45:05.955Z,99789.72
2023-04-01T19:47:51.491Z,99806.16
2023-04-01T19:50:40.489Z,99818.03
2023-04-01T19:53:24.618Z,99810.34
2023-04-01T19:56:13.065Z,99815.44
2023-04-01T19:58:58.494Z,99829.00
2023-04-01T20:02:02.630Z,99834.34
2023-04-01T20:04:44.593Z,99843.66
2023-04-01T20:07:17.184Z,99848.91
2023-04-01T20:10:17.836Z,99859.25
2023-04-01T20:13:01.726Z,99860.50
2023-04-01T20:15:35.216Z,99865.50
2023-04-01T20:18:07.083Z,99881.31
2023-04-01T20:20:35.242Z,99877.72
2023-04-01T20:23:36.004Z,99896.69
2023-04-01T20:26:15.713Z,99905.47
2023-04-01T20:28:57.001Z,99903.66
2023-04-01T20:31:42.200Z,99903.50
2023-04-01T20:34:27.632Z,99917.06
2023-04-01T20:37:33.294Z,99929.28
2023-04-01T20:40:31.254Z,99930.00
2023-04-01T20:43:10.144Z,99937.66
2023-04-01T20:45:48.991Z,99940.22
2023-04-01T20:48:24.463Z,99941.53
2023-04-01T20:50:51.296Z,99947.38
2023-04-01T20:53:43.028Z,99961.75
2023-04-01T20:56:17.450Z,99963.63
2023-04-01T20:59:13.361Z,99964.28
2023-04-01T21:01:46.169Z,99970.13
2023-04-01T21:04:22.000Z,99973.84
2023-04-01T21:07:09.962Z,99982.47
2023-04-01T21:09:59.745Z,99992.63
2023-04-01T21:12:35.393Z,99990.19
2023-04-01T21:15:29.998Z,99996.13
2023-04-01T21:18:02.456Z,100007.81
2023-04-01T21:21:00.366Z,100010.66
2023-04-01T21:23:59.139Z,100015.25
2023-04-01T21:26:50.058Z,100015.69
2023-04-01T21:29:26.336Z,100028.03
2023-04-01T21:32:17.417Z,100035.88
2023-04-01T21:34:53.090Z,100037.56
2023-04-01T21:37:44.798Z,100051.41
2023-04-01T21:40:49.002Z,100064.56
2023-04-01T21:43:43.134Z,100065.72
2023-04-01T21:46:42.563Z,100077.19
2023-04-01T21:49:27.739Z,100076.47
2023-04-01T21:52:23.223Z,100095.78
2023-04-01T21:55:31.269Z,100103.47
2023-04-01T21:58:25.432Z,100099.75
2023-04-01T22:01:27.215Z,100108.88
2023-04-01T22:04:31.687Z,100117.25
2023-04-01T22:07:08.571Z,100126.34
2023-04-01T22:10:12.845Z,100138.28
2023-04-01T22:12:48.309Z,100139.19
2023-04-01T22:15:46.040Z,100141.06
2023-04-01T22:18:23.725Z,100152.06
2023-04-01T22:21:24.585Z,100151.94
2023-04-01T22:23:51.099Z,100153.69
2023-04-01T22:26:28.124Z,100163.84
2023-04-01T22:29:35.991Z,100169.34
2023-04-01T22:32:17.417Z,100178.84
2023-04-01T22:35:11.167Z,100177.78
2023-04-01T22:38:00.185Z,100189.81
2023-04-01T22:40:32.815Z,100194.59
2023-04-01T22:43:07.442Z,100187.31
2023-04-01T22:45:44.338Z,100199.69
2023-04-01T22:48:39.457Z,100198.84
2023-04-01T22:51:09.218Z,100213.03
2023-04-01T22:53:51.252Z,100219.06
2023-04-01T22:56:36.829Z,100221.50
2023-04-01T22:59:16.030Z,100234.13
2023-04-01T23:02:08.951Z,100233.72
2023-04-01T23:04:40.827Z,100238.09
2023-04-01T23:07:21.430Z,100235.47
2023-04-01T23:09:49.799Z,100242.66
2023-04-01T23:12:20.524Z,100252.59
2023-04-01T23:14:59.322Z,100266.31
2023-04-01T23:17:37.789Z,100262.44
2023-04-01T23:20:55.916Z,100269.44
2023-04-01T23:23:33.444Z,100276.47
2023-04-01T23:26:14.783Z,100282.06
2023-04-01T23:28:57.985Z,100282.50
2023-04-01T23:31:36.111Z,100292.34
2023-04-01T23:34:14.884Z,100301.41
2023-04-01T23:36:44.970Z,100302.88
2023-04-01T23:39:29.474Z,100308.72
2023-04-01T23:42:00.967Z,100304.16
2023-04-01T23:44:30.026Z,100311.19
2023-04-01T23:46:59.886Z,100314.53
2023-04-01T23:49:34.315Z,100318.28
2023-04-01T23:52:09.757Z,100329.81
2023-04-01T23:54:44.246Z,100337.41
2023-04-01T23:57:18.765Z,100340.22
